Time;durP1;ratioP1;P1;durP2;ratioP2;P2;SDS_P1;SDS_P2;PMS_P1;PMS_P2;Temp;Humidity;BMP_temperature;BMP_pressure;BME280_temperature;BME280_humidity;BME280_pressure;Samples;Min_cycle;Max_cycle;Signal;HPM_P1;HPM_P2
2023/01/23 00:02:01;;;;;;;2.17;1.30;;;;;;;-2.08;72.46;103986.81;4909138;28;20051;-74
2023/01/23 00:04:28;;;;;;;3.88;1.40;;;;;;;-2.08;72.76;103989.38;4931145;28;20053;-73
2023/01/23 00:06:56;;;;;;;2.45;1.42;;;;;;;-2.08;72.59;103977.50;4938910;28;20049;-73
2023/01/23 00:09:23;;;;;;;3.08;1.63;;;;;;;-2.13;72.34;103965.97;4944646;28;20047;-73
2023/01/23 00:11:49;;;;;;;2.53;1.38;;;;;;;-2.08;72.22;103972.38;4939138;28;20051;-73
2023/01/23 00:14:17;;;;;;;2.90;1.50;;;;;;;-2.08;72.76;103962.13;4942753;28;20043;-73
2023/01/23 00:16:44;;;;;;;2.40;1.38;;;;;;;-2.07;72.52;103973.28;4938340;28;20439;-73
2023/01/23 00:19:11;;;;;;;2.63;1.20;;;;;;;-2.07;72.55;103979.28;4944747;28;20508;-73
2023/01/23 00:21:38;;;;;;;2.83;1.90;;;;;;;-2.10;72.25;103968.78;4940434;28;20153;-73
2023/01/23 00:24:07;;;;;;;2.83;1.30;;;;;;;-2.06;72.27;103968.25;4945174;28;20483;-73
2023/01/23 00:26:34;;;;;;;2.30;1.45;;;;;;;-2.09;72.47;103962.00;4940851;28;20052;-73
2023/01/23 00:29:02;;;;;;;3.15;1.92;;;;;;;-2.06;72.20;103968.25;4940581;28;20048;-73
2023/01/23 00:31:31;;;;;;;2.78;1.48;;;;;;;-2.05;72.30;103967.50;4943621;29;20401;-74
2023/01/23 00:34:00;;;;;;;3.38;1.10;;;;;;;-2.06;72.72;103965.69;4941705;28;20047;-73
2023/01/23 00:36:28;;;;;;;2.92;1.23;;;;;;;-2.07;72.69;103958.78;4945685;28;20057;-73
2023/01/23 00:38:56;;;;;;;2.83;1.63;;;;;;;-2.08;72.37;103954.44;4942697;29;20058;-73
2023/01/23 00:41:24;;;;;;;2.65;1.25;;;;;;;-2.05;72.52;103957.28;4939278;28;20048;-74
2023/01/23 00:43:51;;;;;;;4.53;1.70;;;;;;;-2.05;72.65;103958.91;4939683;29;20051;-73
2023/01/23 00:46:19;;;;;;;3.20;1.63;;;;;;;-2.03;72.53;103959.94;4939631;28;20460;-73
2023/01/23 00:48:46;;;;;;;2.85;1.90;;;;;;;-2.03;72.41;103965.06;4939557;28;20071;-73
2023/01/23 00:51:12;;;;;;;2.60;1.60;;;;;;;-2.03;72.65;103965.06;4938485;28;20047;-73
2023/01/23 00:53:39;;;;;;;3.75;1.60;;;;;;;-2.02;72.66;103961.75;4945901;28;20062;-74
2023/01/23 00:56:07;;;;;;;3.20;1.73;;;;;;;-2.06;72.61;103952.88;4937550;28;20047;-73
2023/01/23 00:58:36;;;;;;;4.07;2.10;;;;;;;-2.01;72.23;103957.53;4941746;28;20499;-74
2023/01/23 01:01:03;;;;;;;4.38;2.10;;;;;;;-2.01;72.15;103958.41;4939879;28;20055;-73
2023/01/23 01:03:30;;;;;;;4.10;1.95;;;;;;;-1.99;72.75;103966.22;4939324;29;20055;-73
2023/01/23 01:05:57;;;;;;;2.90;1.48;;;;;;;-1.99;72.23;103971.34;4938092;28;20044;-73
2023/01/23 01:08:24;;;;;;;3.67;1.92;;;;;;;-2.00;72.51;103972.13;4941308;28;20047;-73
2023/01/23 01:10:51;;;;;;;3.05;1.73;;;;;;;-2.01;72.25;103968.66;4935987;28;20064;-73
2023/01/23 01:13:20;;;;;;;3.28;1.42;;;;;;;-2.01;72.72;103960.09;4941595;28;20051;-73
2023/01/23 01:15:48;;;;;;;3.53;1.83;;;;;;;-2.02;72.46;103956.63;4941729;28;20051;-73
2023/01/23 01:18:15;;;;;;;3.25;1.20;;;;;;;-2.01;72.35;103957.53;4940609;28;20143;-73
2023/01/23 01:20:43;;;;;;;2.67;1.90;;;;;;;-2.00;72.20;103959.31;4937741;28;20058;-74
2023/01/23 01:23:10;;;;;;;2.65;1.15;;;;;;;-2.01;72.23;103953.28;4939681;28;20405;-73
2023/01/23 01:25:38;;;;;;;4.10;1.48;;;;;;;-2.00;72.48;103946.50;4945472;28;20058;-73
2023/01/23 01:28:05;;;;;;;4.47;1.48;;;;;;;-2.00;72.63;103938.81;4941258;28;20047;-74
2023/01/23 01:30:32;;;;;;;1.52;1.00;;;;;;;-2.00;72.37;103939.69;4943007;28;20123;-74
2023/01/23 01:33:00;;;;;;;1.98;1.27;;;;;;;-1.99;72.78;103940.59;4941420;28;20063;-73
2023/01/23 01:35:27;;;;;;;6.70;1.85;;;;;;;-2.01;72.50;103937.03;4939788;28;20044;-73
2023/01/23 01:37:54;;;;;;;2.33;1.30;;;;;;;-1.99;72.57;103941.53;4938973;28;20419;-73
2023/01/23 01:40:23;;;;;;;1.95;1.40;;;;;;;-1.99;72.63;103936.41;4939624;28;20476;-73
2023/01/23 01:42:53;;;;;;;3.10;1.50;;;;;;;-1.97;72.63;103933.94;4935461;28;20045;-73
2023/01/23 01:45:59;;;;;;;1.92;1.10;;;;;;;-1.98;72.49;103925.38;4942635;28;20142;-73
2023/01/23 01:48:32;;;;;;;1.63;0.95;;;;;;;-1.97;72.49;103933.94;4940669;29;20055;-73
2023/01/23 01:51:00;;;;;;;2.28;1.00;;;;;;;-2.00;72.66;103924.34;4940024;28;20066;-73
2023/01/23 01:53:31;;;;;;;2.35;1.30;;;;;;;-1.99;72.81;103928.72;4940404;28;20078;-73
2023/01/23 01:55:58;;;;;;;2.33;1.10;;;;;;;-2.00;72.30;103926.00;4943917;29;20055;-73
2023/01/23 01:58:27;;;;;;;2.95;1.38;;;;;;;-1.99;72.70;103928.72;4939614;28;20624;-73
2023/01/23 02:00:55;;;;;;;3.35;1.15;;;;;;;-1.99;72.38;103935.47;4943674;29;20519;-73
2023/01/23 02:03:24;;;;;;;1.85;1.10;;;;;;;-2.00;72.64;103934.59;4935639;28;20047;-73
2023/01/23 02:05:52;;;;;;;3.05;1.48;;;;;;;-2.00;72.85;103932.00;4942939;28;20063;-74
2023/01/23 02:08:24;;;;;;;2.00;1.30;;;;;;;-1.99;72.27;103928.72;4937357;28;20058;-73
2023/01/23 02:10:51;;;;;;;6.22;1.05;;;;;;;-1.98;72.43;103929.59;4938633;28;20942;-74
2023/01/23 02:13:22;;;;;;;2.42;1.42;;;;;;;-1.98;72.52;103927.94;4939555;29;20527;-73
2023/01/23 02:15:49;;;;;;;1.80;1.02;;;;;;;-1.98;72.45;103921.91;4922089;28;20055;-73
2023/01/23 02:18:16;;;;;;;3.38;1.30;;;;;;;-1.98;72.75;103924.47;4938963;28;20039;-73
2023/01/23 02:20:43;;;;;;;3.40;1.42;;;;;;;-1.97;72.71;103936.50;4937705;28;20052;-73
2023/01/23 02:23:20;;;;;;;3.88;1.10;;;;;;;-1.96;72.80;103930.63;4943263;28;20044;-73
2023/01/23 02:25:56;;;;;;;2.28;1.42;;;;;;;-1.96;72.17;103935.75;4937380;28;20066;-73
2023/01/23 02:28:23;;;;;;;2.65;1.35;;;;;;;-1.97;72.78;103934.84;4939431;28;20051;-73
2023/01/23 02:30:50;;;;;;;1.73;1.00;;;;;;;-1.97;72.84;103936.50;4941571;28;20512;-73
2023/01/23 02:33:50;;;;;;;1.08;0.88;;;;;;;-1.97;72.51;103939.06;4939227;28;20555;-73
2023/01/23 02:36:19;;;;;;;1.35;1.15;;;;;;;-2.04;72.74;103923.19;4944882;28;20052;-73
2023/01/23 02:38:53;;;;;;;1.38;0.80;;;;;;;-2.00;72.72;103929.47;4938219;28;20518;-73
2023/01/23 02:41:27;;;;;;;2.17;1.35;;;;;;;-2.00;72.81;103929.47;4942725;28;20121;-73
2023/01/23 02:43:56;;;;;;;2.22;0.93;;;;;;;-2.03;72.67;103926.66;4943231;28;20047;-74
2023/01/23 02:46:24;;;;;;;1.77;1.10;;;;;;;-1.99;72.43;103935.47;4939317;28;20051;-74
2023/01/23 02:48:51;;;;;;;1.35;0.80;;;;;;;-2.00;72.41;103933.69;4945303;28;20047;-74
2023/01/23 02:51:19;;;;;;;1.98;1.10;;;;;;;-1.99;72.11;103938.03;4944145;28;20082;-73
2023/01/23 02:53:46;;;;;;;1.20;0.80;;;;;;;-2.00;72.17;103936.25;4942211;28;20062;-73
2023/01/23 02:56:13;;;;;;;1.88;0.45;;;;;;;-2.00;72.72;103928.56;4946107;28;20039;-73
2023/01/23 03:01:27;;;;;;;1.08;0.70;;;;;;;-2.01;72.74;103924.22;4939626;28;20425;-73
2023/01/23 03:03:55;;;;;;;1.08;0.60;;;;;;;-2.02;72.44;103925.91;4944043;28;20055;-75
2023/01/23 03:06:23;;;;;;;1.27;0.60;;;;;;;-2.01;72.49;103931.91;4947424;28;20572;-73
2023/01/23 03:08:50;;;;;;;0.90;0.60;;;;;;;-2.03;72.44;103932.66;4942049;28;20056;-73
2023/01/23 03:11:18;;;;;;;1.00;0.60;;;;;;;-2.04;72.51;103930.88;4943602;28;20051;-74
2023/01/23 03:13:47;;;;;;;1.38;0.70;;;;;;;-2.05;72.58;103921.41;4944711;29;20051;-74
2023/01/23 03:16:14;;;;;;;1.20;0.60;;;;;;;-2.04;72.50;103922.31;4941308;28;20047;-73
2023/01/23 03:18:41;;;;;;;1.00;0.70;;;;;;;-2.05;72.34;103916.28;4948047;28;20044;-73
2023/01/23 03:21:08;;;;;;;1.00;0.88;;;;;;;-2.05;72.39;103906.03;4945563;29;20046;-73
2023/01/23 03:23:39;;;;;;;1.10;0.57;;;;;;;-2.05;72.46;103900.00;4944727;28;20499;-73
2023/01/23 03:26:06;;;;;;;2.03;0.80;;;;;;;-2.07;72.28;103907.56;4945225;28;20058;-73
2023/01/23 03:31:18;;;;;;;1.15;0.60;;;;;;;-2.08;71.96;103908.34;4945787;29;20062;-73
2023/01/23 03:33:45;;;;;;;1.20;0.70;;;;;;;-2.08;72.45;103904.84;4943792;28;20055;-73
2023/01/23 03:36:13;;;;;;;0.82;0.55;;;;;;;-2.08;72.51;103898.09;4944047;28;20570;-73
2023/01/23 03:41:23;;;;;;;0.88;0.50;;;;;;;-2.08;72.18;103900.66;4943248;28;20488;-73
2023/01/23 03:41:32;;;;;;;0.90;0.50;;;;;;;-2.15;72.07;103888.09;4943143;29;20069;-73
2023/01/23 03:43:58;;;;;;;1.27;0.55;;;;;;;-2.08;72.14;103903.22;4945044;28;20189;-73
2023/01/23 03:46:27;;;;;;;0.90;0.80;;;;;;;-2.08;72.36;103898.09;4941211;28;20528;-73
2023/01/23 03:48:54;;;;;;;1.45;0.52;;;;;;;-2.08;72.09;103902.31;4942509;28;20051;-73
2023/01/23 03:51:20;;;;;;;1.05;0.60;;;;;;;-2.08;72.00;103904.84;4939988;28;20044;-73
2023/01/23 03:53:47;;;;;;;3.40;0.57;;;;;;;-2.29;72.29;103871.56;4940000;28;20055;-73
2023/01/23 03:56:14;;;;;;;0.70;0.50;;;;;;;-2.10;72.28;103902.19;4937389;28;20047;-73
2023/01/23 03:58:41;;;;;;;1.92;0.60;;;;;;;-2.12;71.81;103888.34;4940972;28;20500;-73
2023/01/23 04:01:08;;;;;;;1.15;0.60;;;;;;;-2.17;72.31;103873.38;4944945;28;20067;-80
2023/01/23 04:03:37;;;;;;;3.13;0.80;;;;;;;-2.11;71.90;103886.69;4947327;29;20056;-80
2023/01/23 04:06:04;;;;;;;0.90;0.50;;;;;;;-2.15;72.20;103880.41;4948990;29;20051;-80
2023/01/23 04:08:31;;;;;;;0.80;0.45;;;;;;;-2.11;72.21;103887.56;4947704;28;20507;-81
2023/01/23 04:11:02;;;;;;;0.85;0.70;;;;;;;-2.37;72.68;103843.53;4954144;28;20057;-80
2023/01/23 04:13:29;;;;;;;1.30;0.60;;;;;;;-2.20;72.10;103879.13;4948552;29;20712;-81
2023/01/23 04:15:56;;;;;;;1.17;0.73;;;;;;;-2.17;72.24;103889.63;4941496;28;20836;-80
2023/01/23 04:18:23;;;;;;;0.75;0.50;;;;;;;-2.36;72.11;103856.50;4956921;28;20447;-80
2023/01/23 04:20:51;;;;;;;0.60;0.40;;;;;;;-2.24;72.17;103881.31;4946617;28;20054;-80
2023/01/23 04:23:18;;;;;;;0.90;0.55;;;;;;;-2.16;72.08;103895.63;4947569;28;20047;-80
2023/01/23 04:25:45;;;;;;;1.02;0.60;;;;;;;-2.17;72.28;103897.31;4950716;28;20047;-81
2023/01/23 04:28:12;;;;;;;0.60;0.40;;;;;;;-2.25;71.91;103880.41;4952649;28;20043;-80
2023/01/23 04:30:39;;;;;;;0.80;0.40;;;;;;;-2.19;72.11;103885.13;4953935;28;20055;-80
2023/01/23 04:33:06;;;;;;;1.15;0.60;;;;;;;-2.19;72.21;103887.69;4941933;29;20054;-80
2023/01/23 04:35:33;;;;;;;1.23;0.50;;;;;;;-2.20;71.88;103888.47;4944266;28;20050;-80
2023/01/23 04:38:01;;;;;;;1.20;0.85;;;;;;;-2.21;71.90;103887.59;4943994;28;20054;-80
2023/01/23 04:40:28;;;;;;;1.00;0.88;;;;;;;-2.23;71.81;103884.00;4953110;29;20039;-81
2023/01/23 04:42:56;;;;;;;0.80;0.60;;;;;;;-2.24;71.81;103884.78;4953529;29;20053;-81
2023/01/23 04:45:23;;;;;;;1.15;0.77;;;;;;;-2.26;72.57;103894.00;4944856;28;20052;-79
2023/01/23 04:47:50;;;;;;;1.92;0.90;;;;;;;-2.24;72.07;103897.59;4953285;28;20506;-80
2023/01/23 04:50:16;;;;;;;1.15;0.68;;;;;;;-2.25;71.84;103895.75;4947607;28;20051;-79
2023/01/23 04:52:43;;;;;;;1.30;0.43;;;;;;;-2.26;71.99;103910.25;4951786;28;20385;-79
2023/01/23 04:55:11;;;;;;;1.27;0.60;;;;;;;-2.27;71.76;103908.47;4951194;28;20051;-80
2023/01/23 04:57:38;;;;;;;0.80;0.50;;;;;;;-2.32;72.20;103896.94;4952001;28;20057;-80
2023/01/23 05:00:07;;;;;;;1.40;0.70;;;;;;;-2.28;72.20;103903.19;4950312;28;20391;-80
2023/01/23 05:02:34;;;;;;;1.25;0.60;;;;;;;-2.30;72.09;103903.09;4943271;28;20054;-80
2023/01/23 05:05:01;;;;;;;1.85;0.43;;;;;;;-2.30;72.32;103904.75;4944059;28;20484;-80
2023/01/23 05:07:27;;;;;;;1.25;0.73;;;;;;;-2.42;72.03;103901.13;4949752;28;20050;-80
2023/01/23 05:09:54;;;;;;;1.10;0.60;;;;;;;-2.34;71.73;103901.00;4949706;28;20052;-80
2023/01/23 05:12:23;;;;;;;1.42;0.80;;;;;;;-2.30;71.84;103912.44;4945629;28;20043;-80
2023/01/23 05:14:49;;;;;;;1.10;0.60;;;;;;;-2.31;72.03;103905.50;4949739;28;20138;-80
2023/01/23 05:17:16;;;;;;;1.95;0.90;;;;;;;-2.33;71.94;103897.72;4948445;28;20048;-80
2023/01/23 05:19:43;;;;;;;1.48;0.70;;;;;;;-2.34;71.98;103900.13;4942556;28;20415;-81
2023/01/23 05:22:10;;;;;;;3.85;1.15;;;;;;;-2.34;71.84;103907.81;4943397;28;20051;-80
2023/01/23 05:24:37;;;;;;;3.08;0.95;;;;;;;-2.38;71.98;103903.19;4937845;28;20058;-80
2023/01/23 05:27:04;;;;;;;1.80;1.25;;;;;;;-2.50;72.12;103886.03;4940144;28;20047;-81
2023/01/23 05:29:32;;;;;;;2.38;1.10;;;;;;;-2.37;72.04;103912.66;4942872;29;20051;-80
2023/01/23 05:31:59;;;;;;;2.67;1.23;;;;;;;-2.38;71.83;103904.09;4940361;29;20066;-80
2023/01/23 05:34:26;;;;;;;3.08;1.70;;;;;;;-2.39;72.00;103910.00;4948751;29;20054;-81
2023/01/23 05:36:53;;;;;;;3.10;1.45;;;;;;;-2.39;71.79;103911.63;4947524;29;20047;-80
2023/01/23 05:39:20;;;;;;;2.33;1.08;;;;;;;-2.44;71.94;103897.56;4944134;29;20199;-80
2023/01/23 05:41:47;;;;;;;3.25;1.77;;;;;;;-2.47;71.74;103897.31;4945942;28;20396;-80
2023/01/23 05:44:14;;;;;;;3.90;1.27;;;;;;;-2.41;71.81;103918.31;4942853;28;20045;-80
2023/01/23 05:46:42;;;;;;;3.85;1.17;;;;;;;-2.53;71.81;103901.13;4943189;29;20043;-76
2023/01/23 05:49:09;;;;;;;2.85;1.23;;;;;;;-2.50;71.93;103916.75;4936361;29;20134;-76
2023/01/23 05:51:36;;;;;;;2.58;1.67;;;;;;;-2.51;72.00;103906.38;4941403;29;20424;-77
2023/01/23 05:54:03;;;;;;;3.42;1.40;;;;;;;-2.46;71.69;103917.91;4940729;28;20497;-77
2023/01/23 05:56:30;;;;;;;3.10;1.63;;;;;;;-2.47;71.94;103918.69;4940388;29;20058;-76
2023/01/23 05:58:57;;;;;;;3.50;1.45;;;;;;;-2.49;71.64;103920.19;4939870;28;20048;-76
2023/01/23 06:01:24;;;;;;;3.83;1.55;;;;;;;-2.54;71.58;103918.91;4945488;28;20055;-77
2023/01/23 06:03:52;;;;;;;3.63;1.55;;;;;;;-2.52;71.87;103933.63;4945909;28;20047;-81
2023/01/23 06:06:19;;;;;;;4.28;1.70;;;;;;;-2.53;71.68;103931.84;4942382;28;20066;-81
2023/01/23 06:08:46;;;;;;;2.35;1.02;;;;;;;-2.55;71.30;103927.38;4942189;28;20059;-82
2023/01/23 06:11:13;;;;;;;5.35;1.92;;;;;;;-2.53;71.73;103928.41;4950365;28;20052;-81
2023/01/23 06:13:40;;;;;;;3.83;1.35;;;;;;;-2.60;71.39;103921.84;4957737;28;20051;-81
2023/01/23 06:16:08;;;;;;;5.93;2.10;;;;;;;-2.56;71.71;103929.03;4944071;28;20053;-81
2023/01/23 06:18:35;;;;;;;2.65;1.95;;;;;;;-2.57;71.03;103927.22;4953945;28;20051;-82
2023/01/23 06:21:04;;;;;;;5.35;1.90;;;;;;;-2.59;71.38;103915.06;4953972;29;20044;-81
2023/01/23 06:23:30;;;;;;;3.78;1.60;;;;;;;-2.74;71.50;103886.50;4957795;28;20069;-82
2023/01/23 06:26:01;;;;;;;3.45;1.67;;;;;;;-2.59;71.51;103905.75;4957655;29;20062;-82
2023/01/23 06:28:28;;;;;;;2.67;1.23;;;;;;;-2.84;71.36;103858.34;4951834;28;20050;-82
2023/01/23 06:30:55;;;;;;;2.70;1.50;;;;;;;-2.59;71.79;103908.31;4951615;28;20074;-81
2023/01/23 06:33:22;;;;;;;2.20;1.20;;;;;;;-2.59;71.87;103920.16;4943814;29;20048;-78
2023/01/23 06:35:49;;;;;;;3.28;1.60;;;;;;;-2.61;71.49;103922.63;4946393;29;20130;-77
2023/01/23 06:38:17;;;;;;;1.98;1.40;;;;;;;-2.61;71.41;103911.50;4944689;28;20043;-77
2023/01/23 06:40:44;;;;;;;3.40;1.60;;;;;;;-2.62;71.46;103908.03;4943529;29;20051;-77
2023/01/23 06:43:11;;;;;;;2.95;1.67;;;;;;;-2.63;71.37;103915.56;4947466;29;20110;-76
2023/01/23 06:45:38;;;;;;;2.53;1.38;;;;;;;-2.64;71.52;103914.69;4942760;28;20047;-75
2023/01/23 06:48:05;;;;;;;2.20;1.42;;;;;;;-2.70;71.54;103903.94;4941335;29;20044;-75
2023/01/23 06:50:32;;;;;;;2.58;1.50;;;;;;;-2.66;71.68;103908.53;4939374;29;20051;-75
2023/01/23 06:52:59;;;;;;;2.13;1.25;;;;;;;-2.66;71.52;103911.09;4944059;28;20048;-76
2023/01/23 06:55:27;;;;;;;2.78;1.52;;;;;;;-2.66;71.48;103925.53;4940023;29;20471;-75
2023/01/23 06:57:54;;;;;;;2.60;1.60;;;;;;;-2.67;71.40;103927.22;4948816;28;20053;-75
2023/01/23 07:00:21;;;;;;;2.50;1.45;;;;;;;-2.69;71.40;103927.84;4947585;28;20048;-74
2023/01/23 07:02:48;;;;;;;3.35;1.23;;;;;;;-2.69;71.47;103940.63;4943202;28;20044;-74
2023/01/23 07:05:16;;;;;;;1.92;0.95;;;;;;;-2.81;71.57;103928.56;4942334;28;20046;-74
2023/01/23 07:07:42;;;;;;;2.72;1.30;;;;;;;-2.74;71.29;103943.69;4942630;28;20039;-76
2023/01/23 07:10:10;;;;;;;2.45;1.17;;;;;;;-2.74;71.16;103947.91;4941967;28;20051;-76
2023/01/23 07:12:39;;;;;;;1.83;1.05;;;;;;;-2.73;71.39;103942.03;4944611;29;20043;-75
2023/01/23 07:15:07;;;;;;;2.55;1.42;;;;;;;-2.73;71.27;103939.47;4942010;28;20047;-75
2023/01/23 07:17:34;;;;;;;5.65;4.20;;;;;;;-2.75;71.23;103923.09;4940930;28;20055;-74
2023/01/23 07:20:00;;;;;;;3.75;2.00;;;;;;;-2.74;71.28;103927.44;4945609;28;20052;-75
2023/01/23 07:22:27;;;;;;;2.85;1.25;;;;;;;-2.77;71.58;103935.75;4945402;28;20432;-75
2023/01/23 07:24:54;;;;;;;1.83;1.15;;;;;;;-2.88;71.18;103912.56;4944021;28;20488;-75
2023/01/23 07:27:21;;;;;;;1.70;1.00;;;;;;;-2.79;71.30;103921.94;4940844;28;20047;-75
2023/01/23 07:29:49;;;;;;;2.67;1.38;;;;;;;-2.80;71.35;103916.69;4935937;28;20548;-75
2023/01/23 07:32:17;;;;;;;2.00;1.00;;;;;;;-2.80;71.25;103929.47;4940364;29;20090;-75
2023/01/23 07:34:44;;;;;;;2.53;1.80;;;;;;;-2.81;71.57;103935.34;4943122;29;20424;-75
2023/01/23 07:37:11;;;;;;;1.40;1.00;;;;;;;-2.83;71.64;103939.44;4942107;29;20806;-75
2023/01/23 07:39:38;;;;;;;2.17;1.05;;;;;;;-2.82;71.78;103954.00;4943624;28;20409;-75
2023/01/23 07:42:04;;;;;;;1.98;1.17;;;;;;;-2.82;71.51;103943.78;4945441;28;20047;-75
2023/01/23 07:44:31;;;;;;;2.40;1.55;;;;;;;-2.84;71.37;103951.34;4943110;29;20514;-75
2023/01/23 07:47:00;;;;;;;1.73;1.20;;;;;;;-2.84;71.37;103946.22;4940766;28;20423;-76
2023/01/23 07:49:26;;;;;;;2.28;1.15;;;;;;;-2.89;71.37;103932.13;4942092;28;20047;-74
2023/01/23 07:51:53;;;;;;;6.00;1.02;;;;;;;-2.86;71.58;103941.72;4939321;28;20051;-75
2023/01/23 07:54:20;;;;;;;2.92;1.55;;;;;;;-2.87;71.24;103939.94;4942535;28;20039;-74
2023/01/23 07:56:49;;;;;;;2.42;1.30;;;;;;;-2.87;71.47;103951.06;4943427;28;20043;-75
2023/01/23 07:59:16;;;;;;;2.78;1.38;;;;;;;-2.95;71.44;103940.16;4941530;28;20102;-74
2023/01/23 08:01:43;;;;;;;4.20;1.90;;;;;;;-2.88;71.66;103953.47;4943945;28;20047;-73
2023/01/23 08:04:11;;;;;;;2.85;1.50;;;;;;;-2.89;71.52;103957.72;4943912;28;20043;-74
2023/01/23 08:06:38;;;;;;;3.63;2.03;;;;;;;-2.89;71.55;103973.06;4942869;29;20417;-73
2023/01/23 08:09:05;;;;;;;3.35;1.60;;;;;;;-2.89;71.42;103977.28;4941117;28;20052;-72
2023/01/23 08:11:32;;;;;;;4.50;2.08;;;;;;;-3.01;71.30;103956.63;4943335;28;20047;-72
2023/01/23 08:13:59;;;;;;;4.72;2.60;;;;;;;-2.93;71.30;103965.88;4943632;28;20052;-72
2023/01/23 08:16:26;;;;;;;5.47;2.33;;;;;;;-2.92;71.46;103961.66;4940645;28;20047;-72
2023/01/23 08:18:53;;;;;;;6.80;3.42;;;;;;;-2.99;71.16;103945.78;4945474;28;20138;-72
2023/01/23 08:21:22;;;;;;;6.97;2.88;;;;;;;-2.97;71.10;103962.13;4940699;28;20043;-72
2023/01/23 08:23:49;;;;;;;6.30;2.63;;;;;;;-2.99;71.69;103963.69;4940643;28;20055;-73
2023/01/23 08:26:17;;;;;;;6.20;2.80;;;;;;;-2.99;71.41;103962.75;4941911;28;20400;-73
2023/01/23 08:28:45;;;;;;;6.68;3.05;;;;;;;-2.98;70.97;103975.69;4943100;28;20056;-74
2023/01/23 08:31:12;;;;;;;6.47;2.65;;;;;;;-2.99;71.44;103979.03;4944332;28;20055;-73
2023/01/23 08:33:40;;;;;;;4.55;2.83;;;;;;;-2.99;71.16;103986.72;4942299;28;20051;-74
2023/01/23 08:36:08;;;;;;;4.00;1.75;;;;;;;-3.01;71.25;103985.66;4944578;28;20059;-74
2023/01/23 08:38:37;;;;;;;4.82;1.88;;;;;;;-3.02;71.25;103975.28;4937185;29;20048;-73
2023/01/23 08:41:04;;;;;;;6.35;2.30;;;;;;;-3.02;71.31;103975.28;4943051;28;20049;-73
2023/01/23 08:43:31;;;;;;;5.40;2.92;;;;;;;-3.04;71.35;103972.59;4940264;29;20060;-73
2023/01/23 08:46:00;;;;;;;4.60;2.50;;;;;;;-3.05;70.98;103972.47;4943276;29;20074;-75
2023/01/23 08:48:27;;;;;;;8.73;3.08;;;;;;;-3.06;71.19;103971.56;4937926;29;20049;-75
2023/01/23 08:51:00;;;;;;;5.78;3.28;;;;;;;-3.07;71.18;103964.66;4940097;29;20047;-75
2023/01/23 08:53:27;;;;;;;7.03;3.10;;;;;;;-3.09;71.36;103966.19;4943868;28;20480;-75
2023/01/23 08:55:59;;;;;;;8.95;2.88;;;;;;;-3.08;71.41;103978.19;4945789;28;20053;-75
2023/01/23 08:58:26;;;;;;;5.78;2.55;;;;;;;-3.13;71.25;103971.81;4939516;28;20690;-76
2023/01/23 09:00:53;;;;;;;6.70;3.10;;;;;;;-3.09;71.26;103968.75;4941048;29;20043;-75
2023/01/23 09:03:20;;;;;;;6.93;3.40;;;;;;;-3.14;71.25;103963.97;4939663;29;20047;-75
2023/01/23 09:05:47;;;;;;;6.15;3.50;;;;;;;-3.11;71.30;103972.81;4940749;28;20057;-76
2023/01/23 09:08:14;;;;;;;7.95;3.50;;;;;;;-3.10;71.09;103969.50;4943517;29;20043;-75
2023/01/23 09:10:41;;;;;;;7.50;3.47;;;;;;;-3.09;71.41;103968.75;4944754;28;20071;-75
2023/01/23 09:13:09;;;;;;;8.05;4.43;;;;;;;-3.09;71.49;103971.31;4940808;29;20050;-75
2023/01/23 09:15:38;;;;;;;5.25;2.78;;;;;;;-3.10;70.99;103966.97;4942608;28;20050;-75
2023/01/23 09:18:05;;;;;;;4.18;2.10;;;;;;;-3.08;71.00;103970.53;4941145;28;20055;-75
2023/01/23 09:20:32;;;;;;;6.25;3.47;;;;;;;-3.09;70.81;103978.97;4937616;29;20057;-76
2023/01/23 09:22:59;;;;;;;5.38;2.58;;;;;;;-3.10;71.02;103966.97;4944960;29;20043;-75
2023/01/23 09:25:25;;;;;;;6.85;3.75;;;;;;;-3.12;70.99;103957.34;4940694;28;20489;-76
2023/01/23 09:27:52;;;;;;;7.07;3.65;;;;;;;-3.10;71.10;103961.84;4944454;28;20051;-74
2023/01/23 09:30:21;;;;;;;7.20;3.42;;;;;;;-3.10;71.13;103959.28;4945483;28;20043;-73
2023/01/23 09:32:47;;;;;;;7.05;3.70;;;;;;;-3.09;71.05;103955.97;4941680;28;20051;-74
2023/01/23 09:35:14;;;;;;;7.03;3.35;;;;;;;-3.09;71.04;103943.16;4941814;29;20051;-74
2023/01/23 09:37:59;;;;;;;6.40;3.42;;;;;;;-3.20;71.17;103929.44;4940190;28;20051;-74
2023/01/23 09:40:29;;;;;;;6.85;2.83;;;;;;;-3.14;71.24;103949.53;4938501;29;20050;-74
2023/01/23 09:42:59;;;;;;;4.50;2.38;;;;;;;-3.08;70.98;103952.63;4940133;28;20061;-74
2023/01/23 09:45:28;;;;;;;4.00;2.28;;;;;;;-3.07;71.30;103948.44;4941960;29;20039;-73
2023/01/23 09:48:02;;;;;;;5.25;2.05;;;;;;;-3.10;71.17;103945.56;4939993;28;20047;-73
2023/01/23 09:50:33;;;;;;;6.70;3.08;;;;;;;-3.30;70.74;103906.41;4940111;28;20434;-72
2023/01/23 09:53:05;;;;;;;8.73;2.28;;;;;;;-3.32;70.91;103904.47;4941335;28;20056;-73
2023/01/23 09:55:39;;;;;;;7.47;2.90;;;;;;;-3.09;71.09;103947.41;4938587;29;20058;-73
2023/01/23 09:58:15;;;;;;;6.57;3.05;;;;;;;-3.15;70.80;103937.53;4942106;29;20445;-75
2023/01/23 10:00:45;;;;;;;5.63;2.95;;;;;;;-3.16;70.89;103935.72;4941682;28;20059;-74
2023/01/23 10:03:14;;;;;;;6.85;2.80;;;;;;;-3.13;71.03;103927.41;4939437;28;20405;-74
2023/01/23 10:05:50;;;;;;;6.03;2.72;;;;;;;-3.13;70.88;103929.97;4939677;28;20052;-74
2023/01/23 10:08:28;;;;;;;6.43;2.60;;;;;;;-3.13;70.87;103927.41;4934985;28;20050;-74
2023/01/23 10:10:59;;;;;;;6.50;2.80;;;;;;;-3.14;71.11;103920.50;4935382;29;20055;-76
2023/01/23 10:13:56;;;;;;;5.80;3.30;;;;;;;-3.13;71.02;103919.75;4940958;29;20518;-74
2023/01/23 10:17:01;;;;;;;5.88;2.90;;;;;;;-3.14;71.01;103915.41;4943667;28;20047;-75
2023/01/23 10:19:50;;;;;;;5.45;3.05;;;;;;;-3.13;70.77;103910.44;4935501;28;20050;-74
2023/01/23 10:22:33;;;;;;;7.97;3.50;;;;;;;-3.12;70.95;103899.44;4940358;28;20055;-75
2023/01/23 10:25:09;;;;;;;7.68;3.80;;;;;;;-3.13;70.62;103884.88;4939426;28;20051;-74
2023/01/23 10:27:40;;;;;;;8.48;3.42;;;;;;;-3.11;70.62;103882.41;4940035;29;20056;-75
2023/01/23 10:30:25;;;;;;;8.43;3.30;;;;;;;-3.11;70.71;103877.31;4938648;28;20053;-74
2023/01/23 10:32:57;;;;;;;4.32;2.15;;;;;;;-3.12;70.85;103878.09;4939129;28;20039;-74
2023/01/23 10:35:34;;;;;;;6.10;2.55;;;;;;;-3.11;70.73;103884.97;4936115;28;20486;-75
2023/01/23 10:38:05;;;;;;;6.30;2.45;;;;;;;-3.20;70.78;103862.06;4939026;28;20040;-74
2023/01/23 10:43:19;;;;;;;7.43;2.70;;;;;;;-3.14;70.63;103887.28;4938296;28;20062;-74
2023/01/23 10:45:47;;;;;;;8.02;3.30;;;;;;;-3.12;70.56;103893.44;4939173;28;20063;-75
2023/01/23 10:48:40;;;;;;;3.78;1.98;;;;;;;-3.12;70.81;103899.44;4940213;28;20401;-74
2023/01/23 10:51:25;;;;;;;7.20;2.67;;;;;;;-3.18;70.90;103887.00;4942993;28;20095;-75
2023/01/23 10:54:10;;;;;;;5.88;2.97;;;;;;;-3.12;70.68;103885.75;4939367;28;20040;-75
2023/01/23 10:56:46;;;;;;;5.00;2.42;;;;;;;-3.13;70.75;103874.63;4944502;28;20059;-74
2023/01/23 10:59:20;;;;;;;7.40;2.90;;;;;;;-3.14;70.38;103882.16;4942933;28;20460;-74
2023/01/23 11:01:55;;;;;;;5.72;2.35;;;;;;;-3.13;70.42;103871.16;4943972;28;20067;-74
2023/01/23 11:04:26;;;;;;;9.57;2.70;;;;;;;-3.15;70.64;103865.94;4943265;28;20054;-74
2023/01/23 11:07:11;;;;;;;4.18;2.30;;;;;;;-3.16;70.75;103876.91;4945198;28;20055;-74
2023/01/23 11:09:50;;;;;;;4.05;2.15;;;;;;;-3.11;70.40;103879.88;4941892;28;20051;-73
2023/01/23 11:12:20;;;;;;;5.97;2.63;;;;;;;-3.11;70.65;103880.75;4941924;29;20638;-77
2023/01/23 11:14:47;;;;;;;4.55;2.00;;;;;;;-3.11;70.75;103875.66;4942296;29;20051;-78
2023/01/23 11:17:18;;;;;;;5.28;2.33;;;;;;;-3.17;70.63;103867.44;4947694;28;20409;-77
2023/01/23 11:19:48;;;;;;;4.35;2.13;;;;;;;-3.11;70.57;103865.41;4947544;28;20051;-76
2023/01/23 11:22:31;;;;;;;5.85;3.17;;;;;;;-3.13;70.73;103856.75;4948297;28;20397;-76
2023/01/23 11:24:59;;;;;;;5.15;2.03;;;;;;;-3.09;70.66;103856.22;4941436;28;20051;-77
2023/01/23 11:27:28;;;;;;;6.30;2.47;;;;;;;-3.19;70.30;103833.16;4947045;29;20047;-76
2023/01/23 11:30:30;;;;;;;6.88;2.65;;;;;;;-3.07;70.82;103849.59;4942457;28;20047;-76
2023/01/23 11:32:59;;;;;;;5.80;2.45;;;;;;;-3.08;70.74;103837.53;4942234;28;20693;-76
2023/01/23 11:35:43;;;;;;;4.75;2.00;;;;;;;-3.22;70.71;103804.78;4945023;28;20051;-76
2023/01/23 11:38:16;;;;;;;4.60;1.73;;;;;;;-3.04;70.72;103828.50;4943376;29;20054;-77
2023/01/23 11:40:43;;;;;;;6.05;2.90;;;;;;;-3.05;70.76;103827.59;4943129;28;20063;-77
2023/01/23 11:43:14;;;;;;;8.32;2.67;;;;;;;-3.03;70.44;103823.50;4944644;29;20051;-76